createdAt,value
2023-04-16T00:00:48.298Z,0.88
2023-04-16T00:03:16.270Z,1.40
2023-04-16T00:05:43.150Z,1.13
2023-04-16T00:08:10.920Z,1.55
2023-04-16T00:10:37.658Z,1.20
2023-04-16T00:13:04.317Z,1.77
2023-04-16T00:15:31.120Z,1.50
2023-04-16T00:17:57.826Z,1.13
2023-04-16T00:20:24.613Z,1.20
2023-04-16T00:22:51.563Z,1.10
2023-04-16T00:25:18.175Z,1.10
2023-04-16T00:27:44.913Z,1.20
2023-04-16T00:30:12.080Z,1.43
2023-04-16T00:32:38.797Z,1.27
2023-04-16T00:35:06.061Z,1.23
2023-04-16T00:37:33.082Z,1.25
2023-04-16T00:39:59.735Z,1.38
2023-04-16T00:42:26.446Z,1.10
2023-04-16T00:44:53.174Z,1.65
2023-04-16T00:47:21.745Z,1.27
2023-04-16T00:49:49.117Z,1.25
2023-04-16T00:52:15.779Z,1.63
2023-04-16T00:54:42.428Z,1.40
2023-04-16T00:57:10.188Z,1.08
2023-04-16T00:59:36.984Z,1.30
2023-04-16T01:02:03.627Z,1.20
2023-04-16T01:04:30.958Z,1.80
2023-04-16T01:06:57.698Z,1.50
2023-04-16T01:09:24.499Z,1.30
2023-04-16T01:11:51.080Z,1.42
2023-04-16T01:14:17.644Z,1.52
2023-04-16T01:16:44.329Z,1.42
2023-04-16T01:19:11.164Z,1.63
2023-04-16T01:21:37.879Z,1.52
2023-04-16T01:24:05.214Z,2.20
2023-04-16T01:26:31.973Z,1.73
2023-04-16T01:28:59.624Z,1.80
2023-04-16T01:31:26.405Z,1.90
2023-04-16T01:33:53.043Z,1.42
2023-04-16T01:36:19.810Z,1.95
2023-04-16T01:38:46.678Z,1.48
2023-04-16T01:41:13.340Z,1.40
2023-04-16T01:43:40.421Z,1.70
2023-04-16T01:46:20.786Z,1.30
2023-04-16T01:48:47.965Z,1.23
2023-04-16T01:51:14.705Z,1.40
2023-04-16T01:53:41.278Z,2.10
2023-04-16T01:56:07.892Z,1.33
2023-04-16T01:58:34.737Z,1.60
2023-04-16T02:01:01.658Z,1.67
2023-04-16T02:03:28.397Z,1.35
2023-04-16T02:05:55.038Z,1.20
2023-04-16T02:08:24.030Z,1.77
2023-04-16T02:10:50.901Z,1.40
2023-04-16T02:13:17.513Z,1.40
2023-04-16T02:15:47.721Z,1.20
2023-04-16T02:18:14.835Z,1.60
2023-04-16T02:20:45.888Z,1.20
2023-04-16T02:23:15.305Z,1.50
2023-04-16T02:25:45.514Z,1.33
2023-04-16T02:28:14.426Z,1.27
2023-04-16T02:30:41.961Z,1.25
2023-04-16T02:33:10.616Z,1.93
2023-04-16T02:35:38.835Z,1.20
2023-04-16T02:38:06.452Z,1.67
2023-04-16T02:40:33.145Z,1.30
2023-04-16T02:42:59.806Z,1.65
2023-04-16T02:45:26.357Z,1.33
2023-04-16T02:47:52.969Z,1.38
2023-04-16T02:50:19.585Z,1.60
2023-04-16T02:52:46.212Z,1.50
2023-04-16T02:55:13.087Z,1.48
2023-04-16T02:57:39.767Z,0.97
2023-04-16T03:00:07.088Z,1.63
2023-04-16T03:02:33.915Z,1.20
2023-04-16T03:05:00.728Z,1.38
2023-04-16T03:07:27.248Z,2.40
2023-04-16T03:09:53.979Z,1.10
2023-04-16T03:12:20.720Z,1.63
2023-04-16T03:14:47.307Z,1.75
2023-04-16T03:17:14.067Z,1.85
2023-04-16T03:19:40.677Z,1.60
2023-04-16T03:22:07.222Z,1.43
2023-04-16T03:24:33.829Z,1.10
2023-04-16T03:27:02.000Z,1.85
2023-04-16T03:29:28.586Z,1.70
2023-04-16T03:31:55.357Z,1.30
2023-04-16T03:34:21.908Z,1.07
2023-04-16T03:36:48.518Z,1.42
2023-04-16T03:39:15.304Z,1.85
2023-04-16T03:41:41.901Z,1.40
2023-04-16T03:44:08.633Z,1.23
2023-04-16T03:46:35.554Z,0.83
2023-04-16T03:49:02.229Z,1.20
2023-04-16T03:51:28.959Z,1.75
2023-04-16T03:53:55.625Z,1.48
2023-04-16T03:56:22.555Z,1.55
2023-04-16T03:58:49.113Z,1.50
2023-04-16T04:01:15.853Z,1.90
2023-04-16T04:03:42.660Z,1.67
2023-04-16T04:06:09.899Z,1.77
2023-04-16T04:08:36.748Z,1.80
2023-04-16T04:11:03.326Z,1.50
2023-04-16T04:13:29.856Z,1.55
2023-04-16T04:15:56.888Z,1.30
2023-04-16T04:18:23.551Z,1.52
2023-04-16T04:20:50.210Z,1.50
2023-04-16T04:23:16.842Z,1.47
2023-04-16T04:25:46.280Z,1.40
2023-04-16T04:28:12.921Z,2.22
2023-04-16T04:30:39.547Z,1.85
2023-04-16T04:33:06.386Z,1.85
2023-04-16T04:35:33.836Z,1.47
2023-04-16T04:38:02.576Z,1.52
2023-04-16T04:40:29.343Z,2.13
2023-04-16T04:42:56.162Z,2.05
2023-04-16T04:45:25.531Z,2.05
2023-04-16T04:47:55.362Z,1.97
2023-04-16T04:50:22.376Z,1.70
2023-04-16T04:52:48.895Z,2.17
2023-04-16T04:55:16.119Z,2.40
2023-04-16T04:57:42.821Z,2.50
2023-04-16T05:00:10.069Z,2.20
2023-04-16T05:02:36.830Z,2.15
2023-04-16T05:05:04.257Z,1.88
2023-04-16T05:07:32.297Z,2.10
2023-04-16T05:09:59.130Z,1.70
2023-04-16T05:12:25.886Z,1.83
2023-04-16T05:14:52.491Z,2.35
2023-04-16T05:17:19.300Z,1.58
2023-04-16T05:19:45.898Z,2.03
2023-04-16T05:22:12.722Z,1.80
2023-04-16T05:24:39.276Z,2.00
2023-04-16T05:27:06.595Z,2.47
2023-04-16T05:29:33.149Z,2.08
2023-04-16T05:31:59.821Z,2.47
2023-04-16T05:34:26.729Z,2.10
2023-04-16T05:36:53.371Z,2.17
2023-04-16T05:39:20.337Z,2.00
2023-04-16T05:41:46.955Z,2.00
2023-04-16T05:44:13.600Z,1.90
2023-04-16T05:46:40.228Z,2.08
2023-04-16T05:49:06.829Z,1.93
2023-04-16T05:51:33.572Z,2.08
2023-04-16T05:54:00.123Z,1.98
2023-04-16T05:56:27.139Z,2.47
2023-04-16T05:58:53.721Z,2.10
2023-04-16T06:01:21.318Z,2.30
2023-04-16T06:03:47.979Z,2.42
2023-04-16T06:06:14.617Z,2.15
2023-04-16T06:08:41.635Z,2.17
2023-04-16T06:11:08.246Z,1.95
2023-04-16T06:13:34.780Z,2.60
2023-04-16T06:16:01.473Z,2.55
2023-04-16T06:18:28.126Z,1.98
2023-04-16T06:20:54.922Z,2.38
2023-04-16T06:23:21.620Z,2.25
2023-04-16T06:25:48.241Z,2.87
2023-04-16T06:28:15.198Z,2.95
2023-04-16T06:30:43.373Z,2.75
2023-04-16T06:33:11.237Z,2.70
2023-04-16T06:35:37.804Z,2.45
2023-04-16T06:38:04.354Z,2.23
2023-04-16T06:40:31.067Z,1.95
2023-04-16T06:42:57.694Z,2.70
2023-04-16T06:45:24.718Z,2.13
2023-04-16T06:47:52.661Z,2.10
2023-04-16T06:50:19.458Z,1.77
2023-04-16T06:52:46.167Z,1.92
2023-04-16T06:55:13.777Z,2.08
2023-04-16T06:57:40.908Z,1.42
2023-04-16T07:00:08.197Z,1.77
2023-04-16T07:02:35.227Z,2.20
2023-04-16T07:05:02.281Z,2.13
2023-04-16T07:07:28.908Z,2.83
2023-04-16T07:09:55.541Z,1.80
2023-04-16T07:12:22.954Z,1.88
2023-04-16T07:14:49.734Z,1.63
2023-04-16T07:17:16.459Z,1.83
2023-04-16T07:19:43.002Z,2.38
2023-04-16T07:22:09.663Z,2.10
2023-04-16T07:24:36.614Z,2.63
2023-04-16T07:27:03.274Z,2.20
2023-04-16T07:29:30.128Z,1.70
2023-04-16T07:31:57.615Z,2.00
2023-04-16T07:34:24.406Z,2.00
2023-04-16T07:36:51.151Z,2.15
2023-04-16T07:39:17.908Z,1.90
2023-04-16T07:41:44.563Z,1.83
2023-04-16T07:44:11.206Z,1.83
2023-04-16T07:46:46.453Z,1.70
2023-04-16T07:49:13.989Z,3.15
2023-04-16T07:51:40.746Z,2.40
2023-04-16T07:54:07.308Z,2.25
2023-04-16T07:56:33.983Z,2.20
2023-04-16T07:59:07.827Z,2.15
2023-04-16T08:01:41.659Z,1.90
2023-04-16T08:04:08.523Z,2.03
2023-04-16T08:06:35.214Z,2.60
2023-04-16T08:09:01.816Z,2.05
2023-04-16T08:11:28.989Z,2.08
2023-04-16T08:13:55.953Z,2.13
2023-04-16T08:16:22.809Z,2.30
2023-04-16T08:18:49.503Z,2.38
2023-04-16T08:21:16.126Z,2.10
2023-04-16T08:23:42.761Z,2.15
2023-04-16T08:26:09.309Z,2.10
2023-04-16T08:28:35.881Z,2.20
2023-04-16T08:31:02.575Z,2.20
2023-04-16T08:33:29.342Z,1.90
2023-04-16T08:35:55.898Z,2.00
2023-04-16T08:38:22.600Z,2.10
2023-04-16T08:40:49.413Z,1.93
2023-04-16T08:43:18.406Z,2.42
2023-04-16T08:45:47.740Z,1.92
2023-04-16T08:48:16.289Z,2.05
2023-04-16T08:50:44.431Z,2.22
2023-04-16T08:53:19.363Z,1.83
2023-04-16T08:55:50.486Z,1.67
2023-04-16T08:58:22.236Z,1.95
2023-04-16T09:00:49.618Z,1.90
2023-04-16T09:03:16.589Z,2.08
2023-04-16T09:05:44.368Z,2.60
2023-04-16T09:08:11.215Z,2.22
2023-04-16T09:10:37.875Z,2.10
2023-04-16T09:13:04.462Z,2.20
2023-04-16T09:15:33.992Z,1.90
2023-04-16T09:18:02.121Z,1.80
2023-04-16T09:20:29.215Z,1.95
2023-04-16T09:22:57.564Z,2.33
2023-04-16T09:25:25.117Z,2.45
2023-04-16T09:27:51.803Z,2.17
2023-04-16T09:30:24.028Z,2.10
2023-04-16T09:32:52.775Z,1.88
2023-04-16T09:35:20.111Z,2.58
2023-04-16T09:37:57.685Z,1.80
2023-04-16T09:40:27.215Z,2.60
2023-04-16T09:42:58.317Z,2.30
2023-04-16T09:45:24.844Z,2.25
2023-04-16T09:47:51.659Z,2.38
2023-04-16T09:50:19.761Z,2.45
2023-04-16T09:52:50.089Z,2.40
2023-04-16T09:55:16.791Z,2.20
2023-04-16T09:57:43.352Z,2.53
2023-04-16T10:00:11.481Z,1.90
2023-04-16T10:02:41.918Z,2.13
2023-04-16T10:05:09.086Z,2.75
2023-04-16T10:07:37.295Z,2.10
2023-04-16T10:10:05.081Z,2.03
2023-04-16T10:12:33.101Z,2.13
2023-04-16T10:14:59.830Z,1.92
2023-04-16T10:17:30.414Z,2.38
2023-04-16T10:19:58.436Z,2.20
2023-04-16T10:22:26.432Z,2.30
2023-04-16T10:24:54.916Z,2.80
2023-04-16T10:27:21.844Z,1.92
2023-04-16T10:29:49.348Z,1.90
2023-04-16T10:32:18.312Z,1.83
2023-04-16T10:34:45.210Z,2.03
2023-04-16T10:37:12.677Z,2.55
2023-04-16T10:39:39.449Z,1.70
2023-04-16T10:42:13.418Z,2.08
2023-04-16T10:44:44.390Z,2.00
2023-04-16T10:47:13.787Z,2.45
2023-04-16T10:49:42.728Z,2.75
2023-04-16T10:52:19.291Z,2.22
2023-04-16T10:54:48.063Z,2.10
2023-04-16T10:57:19.932Z,2.03
2023-04-16T10:59:48.905Z,2.20
2023-04-16T11:02:18.018Z,2.78
2023-04-16T11:04:49.206Z,2.00
2023-04-16T11:07:18.719Z,1.90
2023-04-16T11:09:48.928Z,2.40
2023-04-16T11:12:20.484Z,2.20
2023-04-16T11:14:52.482Z,2.30
2023-04-16T11:17:20.521Z,2.13
2023-04-16T11:19:48.258Z,1.85
2023-04-16T11:22:17.900Z,2.30
2023-04-16T11:24:46.363Z,1.98
2023-04-16T11:27:15.425Z,2.10
2023-04-16T11:29:42.394Z,1.60
2023-04-16T11:32:09.264Z,1.95
2023-04-16T11:34:44.227Z,2.23
2023-04-16T11:37:10.988Z,2.20
2023-04-16T11:39:51.948Z,2.47
2023-04-16T11:42:24.763Z,2.00
2023-04-16T11:44:56.202Z,2.38
2023-04-16T11:47:24.552Z,1.97
2023-04-16T11:49:51.726Z,2.30
2023-04-16T11:52:34.240Z,2.80
2023-04-16T11:55:02.660Z,2.50
2023-04-16T11:57:30.674Z,2.75
2023-04-16T12:00:02.710Z,2.67
2023-04-16T12:02:38.225Z,2.83
2023-04-16T12:05:05.775Z,3.63
2023-04-16T12:07:32.898Z,2.70
2023-04-16T12:10:08.964Z,2.13
2023-04-16T12:12:36.080Z,2.13
2023-04-16T12:15:04.076Z,2.00
2023-04-16T12:17:33.268Z,1.83
2023-04-16T12:20:02.894Z,2.40
2023-04-16T12:22:37.707Z,2.72
2023-04-16T12:25:11.244Z,1.90
2023-04-16T12:27:53.404Z,1.92
2023-04-16T12:30:22.906Z,1.80
2023-04-16T12:32:52.268Z,1.80
2023-04-16T12:35:33.729Z,1.50
2023-04-16T12:38:01.594Z,2.47
2023-04-16T12:40:28.350Z,1.80
2023-04-16T12:42:55.547Z,1.60
2023-04-16T12:45:22.570Z,1.75
2023-04-16T12:47:50.594Z,1.92
2023-04-16T12:50:17.992Z,1.77
2023-04-16T12:52:46.037Z,1.90
2023-04-16T12:55:13.971Z,2.10
2023-04-16T12:57:41.281Z,1.67
2023-04-16T13:00:08.631Z,2.10
2023-04-16T13:02:35.345Z,1.93
2023-04-16T13:05:02.196Z,2.08
2023-04-16T13:07:31.825Z,2.15
2023-04-16T13:09:58.456Z,1.73
2023-04-16T13:12:25.056Z,2.05
2023-04-16T13:14:51.642Z,2.53
2023-04-16T13:17:18.309Z,2.25
2023-04-16T13:19:45.781Z,1.65
2023-04-16T13:22:12.507Z,1.77
2023-04-16T13:24:39.208Z,2.08
2023-04-16T13:27:08.233Z,1.60
2023-04-16T13:29:36.743Z,1.98
2023-04-16T13:32:04.036Z,2.10
2023-04-16T13:34:30.823Z,1.80
2023-04-16T13:36:57.378Z,2.30
2023-04-16T13:39:24.188Z,2.10
2023-04-16T13:41:51.521Z,2.15
2023-04-16T13:44:18.200Z,2.30
2023-04-16T13:46:47.688Z,1.88
2023-04-16T13:49:14.901Z,2.05
2023-04-16T13:51:44.661Z,1.73
2023-04-16T13:54:11.363Z,1.98
2023-04-16T13:56:38.058Z,2.22
2023-04-16T13:59:04.660Z,1.80
2023-04-16T14:01:31.355Z,2.08
2023-04-16T14:03:59.695Z,1.70
2023-04-16T14:06:27.098Z,1.50
2023-04-16T14:08:53.785Z,1.92
2023-04-16T14:11:21.066Z,1.80
2023-04-16T14:13:47.644Z,2.35
2023-04-16T14:16:14.255Z,1.23
2023-04-16T14:18:42.800Z,1.67
2023-04-16T14:21:09.559Z,1.67
2023-04-16T14:23:36.400Z,1.52
2023-04-16T14:26:03.866Z,1.85
2023-04-16T14:28:30.559Z,1.40
2023-04-16T14:30:57.174Z,1.75
2023-04-16T14:33:23.813Z,1.70
2023-04-16T14:35:51.495Z,1.75
2023-04-16T14:38:18.485Z,2.00
2023-04-16T14:40:45.169Z,1.80
2023-04-16T14:43:12.175Z,1.85
2023-04-16T14:45:39.295Z,2.17
2023-04-16T14:48:06.354Z,1.40
2023-04-16T14:50:37.971Z,1.50
2023-04-16T14:53:07.751Z,1.40
2023-04-16T14:55:34.467Z,1.85
2023-04-16T14:58:01.488Z,1.85
2023-04-16T15:00:28.359Z,2.58
2023-04-16T15:02:55.613Z,1.67
2023-04-16T15:05:22.398Z,1.87
2023-04-16T15:07:49.187Z,1.75
2023-04-16T15:10:15.819Z,1.63
2023-04-16T15:12:42.599Z,1.90
2023-04-16T15:15:10.060Z,2.05
2023-04-16T15:17:36.755Z,1.93
2023-04-16T15:20:10.970Z,1.52
2023-04-16T15:22:38.350Z,2.00
2023-04-16T15:25:06.544Z,2.00
2023-04-16T15:27:33.323Z,2.30
2023-04-16T15:30:00.043Z,1.90
2023-04-16T15:32:26.678Z,1.92
2023-04-16T15:34:53.397Z,2.35
2023-04-16T15:37:20.035Z,2.22
2023-04-16T15:39:46.575Z,2.15
2023-04-16T15:42:13.325Z,2.20
2023-04-16T15:44:40.421Z,2.05
2023-04-16T15:47:08.621Z,2.50
2023-04-16T15:49:35.572Z,2.72
2023-04-16T15:52:02.460Z,2.38
2023-04-16T15:54:30.278Z,2.10
2023-04-16T15:56:56.857Z,1.90
2023-04-16T15:59:23.862Z,2.42
2023-04-16T16:01:51.038Z,2.00
2023-04-16T16:04:17.833Z,2.42
2023-04-16T16:06:44.487Z,2.17
2023-04-16T16:09:11.417Z,2.20
2023-04-16T16:11:38.446Z,2.63
2023-04-16T16:14:05.052Z,2.53
2023-04-16T16:16:32.912Z,2.40
2023-04-16T16:18:59.656Z,2.10
2023-04-16T16:21:27.406Z,2.10
2023-04-16T16:23:54.046Z,2.10
2023-04-16T16:26:22.986Z,2.47
2023-04-16T16:28:49.630Z,2.20
2023-04-16T16:31:16.336Z,1.90
2023-04-16T16:33:43.363Z,2.65
2023-04-16T16:36:11.416Z,2.40
2023-04-16T16:38:40.069Z,2.00
2023-04-16T16:41:07.389Z,2.38
2023-04-16T16:43:35.977Z,2.00
2023-04-16T16:46:02.609Z,2.38
2023-04-16T16:48:29.562Z,2.55
2023-04-16T16:50:56.181Z,2.70
2023-04-16T16:53:22.752Z,2.50
2023-04-16T16:55:49.343Z,2.37
2023-04-16T16:58:16.005Z,2.13
2023-04-16T17:00:42.694Z,2.63
2023-04-16T17:03:09.738Z,2.00
2023-04-16T17:05:36.771Z,2.53
2023-04-16T17:08:03.718Z,2.40
2023-04-16T17:10:30.460Z,2.38
2023-04-16T17:12:57.248Z,2.38
2023-04-16T17:15:23.957Z,2.80
2023-04-16T17:17:51.009Z,2.80
2023-04-16T17:20:17.822Z,2.43
2023-04-16T17:22:44.448Z,2.88
2023-04-16T17:25:11.259Z,3.15
2023-04-16T17:27:37.971Z,2.80
2023-04-16T17:30:05.813Z,2.67
2023-04-16T17:32:33.322Z,2.67
2023-04-16T17:35:01.875Z,2.92
2023-04-16T17:37:28.662Z,2.47
2023-04-16T17:39:55.649Z,3.00
2023-04-16T17:42:22.259Z,2.65
2023-04-16T17:44:48.824Z,2.40
2023-04-16T17:47:15.403Z,3.28
2023-04-16T17:49:42.017Z,3.20
2023-04-16T17:52:08.651Z,2.90
2023-04-16T17:54:35.291Z,2.40
2023-04-16T17:57:02.183Z,2.57
2023-04-16T17:59:28.938Z,2.80
2023-04-16T18:01:56.719Z,3.35
2023-04-16T18:04:23.702Z,2.75
2023-04-16T18:06:50.806Z,2.97
2023-04-16T18:09:19.202Z,2.77
2023-04-16T18:11:46.111Z,2.78
2023-04-16T18:14:16.704Z,2.60
2023-04-16T18:16:43.451Z,1.98
2023-04-16T18:19:10.023Z,2.88
2023-04-16T18:21:36.667Z,2.20
2023-04-16T18:24:03.599Z,2.40
2023-04-16T18:26:31.040Z,2.58
2023-04-16T18:28:57.880Z,3.20
2023-04-16T18:31:24.714Z,2.85
2023-04-16T18:33:56.623Z,2.80
2023-04-16T18:36:26.124Z,2.72
2023-04-16T18:39:01.539Z,2.85
2023-04-16T18:41:29.871Z,2.60
2023-04-16T18:43:56.729Z,3.15
2023-04-16T18:46:23.435Z,2.63
2023-04-16T18:48:50.135Z,2.90
2023-04-16T18:51:17.034Z,2.78
2023-04-16T18:53:45.675Z,3.22
2023-04-16T18:56:12.715Z,2.78
2023-04-16T18:58:39.302Z,3.00
2023-04-16T19:01:10.966Z,2.85
2023-04-16T19:03:38.092Z,2.75
2023-04-16T19:06:05.969Z,2.80
2023-04-16T19:08:33.020Z,3.05
2023-04-16T19:10:59.688Z,3.27
2023-04-16T19:13:26.408Z,2.55
2023-04-16T19:15:59.732Z,3.35
2023-04-16T19:18:26.603Z,3.00
2023-04-16T19:21:00.214Z,2.60
2023-04-16T19:23:27.175Z,3.37
2023-04-16T19:25:55.747Z,3.30
2023-04-16T19:28:23.699Z,3.00
2023-04-16T19:30:51.482Z,3.17
2023-04-16T19:33:18.998Z,3.47
2023-04-16T19:35:46.810Z,3.70
2023-04-16T19:38:13.549Z,3.70
2023-04-16T19:40:41.161Z,4.18
2023-04-16T19:43:08.091Z,2.80
2023-04-16T19:45:35.205Z,3.42
2023-04-16T19:48:01.951Z,4.13
2023-04-16T19:50:28.517Z,3.65
2023-04-16T19:52:55.067Z,3.85
2023-04-16T19:55:22.831Z,4.03
2023-04-16T19:57:49.662Z,3.97
2023-04-16T20:00:17.082Z,4.30
2023-04-16T20:02:43.801Z,4.85
2023-04-16T20:05:10.572Z,4.72
2023-04-16T20:07:37.154Z,4.63
2023-04-16T20:10:04.041Z,5.03
2023-04-16T20:12:30.626Z,4.83
2023-04-16T20:14:57.371Z,4.07
2023-04-16T20:17:24.057Z,4.15
2023-04-16T20:19:51.246Z,4.10
2023-04-16T20:22:18.828Z,4.32
2023-04-16T20:24:47.721Z,5.37
2023-04-16T20:27:15.361Z,4.93
2023-04-16T20:29:42.163Z,6.88
2023-04-16T20:32:08.798Z,6.05
2023-04-16T20:34:36.635Z,5.80
2023-04-16T20:37:03.509Z,5.77
2023-04-16T20:39:34.033Z,6.45
2023-04-16T20:42:00.939Z,6.05
2023-04-16T20:44:33.429Z,6.47
2023-04-16T20:47:00.142Z,5.57
2023-04-16T20:49:26.776Z,5.20
2023-04-16T20:51:53.667Z,6.45
2023-04-16T20:54:20.204Z,5.63
2023-04-16T20:56:47.237Z,6.57
2023-04-16T20:59:14.078Z,6.43
2023-04-16T21:01:40.807Z,6.90
2023-04-16T21:04:08.021Z,7.57
2023-04-16T21:06:38.610Z,6.75
2023-04-16T21:09:06.078Z,6.45
2023-04-16T21:11:34.779Z,6.97
2023-04-16T21:14:05.526Z,7.53
2023-04-16T21:16:32.600Z,8.23
2023-04-16T21:19:00.686Z,8.18
2023-04-16T21:21:27.847Z,7.93
2023-04-16T21:23:54.528Z,8.32
2023-04-16T21:26:21.561Z,7.93
2023-04-16T21:28:48.440Z,7.00
2023-04-16T21:31:18.376Z,7.30
2023-04-16T21:33:45.133Z,8.02
2023-04-16T21:36:12.057Z,8.98
2023-04-16T21:38:38.714Z,9.53
2023-04-16T21:41:05.407Z,8.48
2023-04-16T21:43:34.819Z,9.63
2023-04-16T21:46:01.440Z,9.70
2023-04-16T21:48:28.603Z,10.60
2023-04-16T21:50:59.929Z,8.13
2023-04-16T21:53:32.023Z,7.65
2023-04-16T21:55:58.928Z,7.13
2023-04-16T21:58:28.727Z,7.30
2023-04-16T22:00:55.402Z,7.78
2023-04-16T22:03:27.671Z,7.03
2023-04-16T22:06:00.931Z,7.95
2023-04-16T22:08:31.282Z,8.15
2023-04-16T22:11:02.843Z,9.50
2023-04-16T22:13:32.462Z,9.85
2023-04-16T22:16:02.926Z,7.83
2023-04-16T22:18:32.997Z,9.05
2023-04-16T22:21:00.506Z,8.80
2023-04-16T22:23:27.467Z,8.18
2023-04-16T22:25:55.390Z,9.13
2023-04-16T22:28:22.889Z,8.00
2023-04-16T22:30:50.046Z,8.90
2023-04-16T22:33:16.918Z,7.35
2023-04-16T22:35:43.708Z,8.70
2023-04-16T22:38:10.589Z,8.02
2023-04-16T22:40:37.265Z,9.13
2023-04-16T22:43:03.963Z,8.93
2023-04-16T22:45:30.613Z,9.23
2023-04-16T22:47:57.302Z,9.85
2023-04-16T22:50:24.166Z,9.73
2023-04-16T22:52:50.781Z,8.03
2023-04-16T22:55:17.430Z,8.60
2023-04-16T22:57:43.982Z,10.50
2023-04-16T23:00:15.858Z,9.45
2023-04-16T23:02:43.182Z,9.93
2023-04-16T23:05:10.086Z,10.90
2023-04-16T23:07:36.727Z,10.85
2023-04-16T23:10:03.395Z,11.50
2023-04-16T23:12:30.069Z,11.25
2023-04-16T23:14:56.984Z,11.00
2023-04-16T23:17:23.571Z,10.23
2023-04-16T23:19:50.254Z,11.00
2023-04-16T23:22:17.140Z,10.07
2023-04-16T23:24:43.719Z,9.57
2023-04-16T23:27:10.927Z,10.98
2023-04-16T23:29:37.662Z,11.23
2023-04-16T23:32:04.612Z,12.10
2023-04-16T23:34:31.594Z,11.82
2023-04-16T23:36:58.376Z,11.88
2023-04-16T23:39:24.997Z,10.35
2023-04-16T23:41:51.525Z,10.43
2023-04-16T23:44:18.142Z,10.30
2023-04-16T23:46:44.756Z,10.20
2023-04-16T23:49:11.593Z,10.85
2023-04-16T23:51:38.409Z,11.50
2023-04-16T23:54:05.046Z,10.77
2023-04-16T23:56:31.686Z,12.52
2023-04-16T23:58:58.368Z,12.27
